Overview Statistics Trail Chart Weather Telemetry Raw packets
 

This is the latest recevied weather packets stored in our database for station/object JS2QVS-13. If no packets are shown the sender has not sent any weather packets the latest 10 day(s).

<< 54 55 56 57 >>
Time Temp. Humidity Pressure Rain* Wind** Luminosity Snow
1787730058 30° C 77% 1003.6 hPa 0 mm - - -
1787729458 31.11° C 72% 1003.4 hPa 0 mm - - -
1787728858 31.11° C 72% 1003.4 hPa 0 mm - - -
1787728257 31.67° C 69% 1003.2 hPa 0 mm - - -
1787727657 31.67° C 65% 1003.1 hPa 0 mm - - -
1787727057 31.67° C 66% 1003 hPa 0 mm - - -
1787726457 31.67° C 67% 1003.2 hPa 0 mm - - -
1787725857 31.67° C 67% 1003.4 hPa 0 mm - - -
1787725257 31.67° C 65% 1003.5 hPa 0 mm - - -
1787724657 32.22° C 64% 1003.4 hPa 0 mm - - -
1787724056 31.67° C 67% 1003.5 hPa 0 mm - - -
1787723457 31.67° C 64% 1003.6 hPa 0 mm - - -
1787722856 32.22° C 60% 1003.5 hPa 0 mm - - -
1787722256 32.78° C 60% 1003.4 hPa 0 mm - - -
1787721659 32.22° C 60% 1003.4 hPa 0 mm - - -
1787721058 31.67° C 62% 1003.6 hPa 0 mm - - -
1787720458 31.67° C 62% 1003.7 hPa 0 mm - - -
1787719858 31.67° C 65% 1003.8 hPa 0 mm - - -
1787719258 31.67° C 65% 1003.8 hPa 0 mm - - -
1787718658 32.22° C 62% 1003.8 hPa 0 mm - - -
1787718057 32.78° C 60% 1003.8 hPa 0 mm - - -
1787717457 32.22° C 61% 1003.9 hPa 0 mm - - -
1787716857 32.22° C 61% 1004 hPa 0 mm - - -

* Rain latest hour (hover to see other rain measurements)
** Current wind speed in m/s (hover to see current wind gust speed)